Time;durP1;ratioP1;P1;durP2;ratioP2;P2;SDS_P1;SDS_P2;PMS_P1;PMS_P2;Temp;Humidity;BMP_temperature;BMP_pressure;BME280_temperature;BME280_humidity;BME280_pressure;Samples;Min_cycle;Max_cycle;Signal;HPM_P1;HPM_P2
2023/07/07 00:01:15;;;;;;;7.50;5.60;;;14.40;99.90;;;;;;5070783;28;20285;-70
2023/07/07 00:03:41;;;;;;;5.40;5.00;;;14.40;99.90;;;;;;5070873;28;20175;-70
2023/07/07 00:06:07;;;;;;;5.33;4.93;;;14.30;99.90;;;;;;5071115;28;20257;-70
2023/07/07 00:08:33;;;;;;;5.73;5.23;;;14.30;99.90;;;;;;5071040;28;20194;-70
2023/07/07 00:10:59;;;;;;;6.00;5.40;;;14.20;99.90;;;;;;5071075;28;20170;-70
2023/07/07 00:13:26;;;;;;;5.90;5.30;;;14.20;99.90;;;;;;5070821;28;20201;-70
2023/07/07 00:16:01;;;;;;;5.67;5.07;;;14.10;99.90;;;;;;5071229;28;20174;-70
2023/07/07 00:18:27;;;;;;;8.40;5.83;;;14.00;99.90;;;;;;5070602;28;20289;-70
2023/07/07 00:20:54;;;;;;;6.10;5.53;;;14.00;99.90;;;;;;5070780;28;20732;-70
2023/07/07 00:23:20;;;;;;;5.40;5.10;;;14.00;99.90;;;;;;5070931;28;20198;-70
2023/07/07 00:25:55;;;;;;;5.87;5.33;;;13.90;99.90;;;;;;5071115;28;20604;-70
2023/07/07 00:28:21;;;;;;;5.60;5.10;;;13.90;99.90;;;;;;5070908;28;20260;-71
2023/07/07 00:30:47;;;;;;;5.80;5.30;;;13.90;99.90;;;;;;5070627;28;20174;-70
2023/07/07 00:33:12;;;;;;;6.20;5.67;;;13.90;99.90;;;;;;5070577;28;20170;-72
2023/07/07 00:35:47;;;;;;;6.17;5.57;;;13.90;99.90;;;;;;5052665;28;20648;-70
2023/07/07 00:38:13;;;;;;;6.27;5.67;;;13.90;99.90;;;;;;5052789;28;20201;-70
2023/07/07 00:40:39;;;;;;;6.20;5.73;;;13.90;99.90;;;;;;5074772;28;20193;-70
2023/07/07 00:43:16;;;;;;;8.90;6.63;;;13.80;99.90;;;;;;5074670;28;20547;-70
2023/07/07 00:45:42;;;;;;;9.67;5.47;;;13.80;99.90;;;;;;5074678;28;20532;-71
2023/07/07 00:48:31;;;;;;;7.87;5.40;;;13.80;99.90;;;;;;5074425;28;20197;-70
2023/07/07 00:51:01;;;;;;;6.20;5.70;;;13.80;99.90;;;;;;5074789;28;20170;-69
2023/07/07 00:53:29;;;;;;;7.77;5.77;;;13.80;99.90;;;;;;5074145;28;20680;-70
2023/07/07 00:56:09;;;;;;;6.00;5.57;;;13.80;99.90;;;;;;5074879;28;20170;-70
2023/07/07 00:58:36;;;;;;;9.70;5.60;;;13.80;99.90;;;;;;5074507;28;20571;-72
2023/07/07 01:01:06;;;;;;;5.93;5.43;;;13.80;99.90;;;;;;5074180;28;20232;-70
2023/07/07 01:03:38;;;;;;;5.43;5.03;;;13.80;99.90;;;;;;5056370;28;20638;-70
2023/07/07 01:06:06;;;;;;;6.57;5.50;;;13.70;99.90;;;;;;5074371;28;20189;-70
2023/07/07 01:08:34;;;;;;;5.80;5.20;;;13.70;99.90;;;;;;5056302;28;20194;-70
2023/07/07 01:11:00;;;;;;;5.83;5.33;;;13.70;99.90;;;;;;5074147;28;20210;-70
2023/07/07 01:13:26;;;;;;;5.77;5.37;;;13.60;99.90;;;;;;5074099;28;20214;-70
2023/07/07 01:16:05;;;;;;;6.80;6.20;;;13.60;99.90;;;;;;5074069;28;20186;-70
2023/07/07 01:19:01;;;;;;;5.73;5.33;;;13.60;99.90;;;;;;5074173;28;20201;-69
2023/07/07 01:21:56;;;;;;;6.10;5.47;;;13.50;99.90;;;;;;5074281;28;20267;-70
2023/07/07 01:25:06;;;;;;;5.87;5.33;;;13.50;99.90;;;;;;5073821;28;20174;-70
2023/07/07 01:28:08;;;;;;;5.77;5.27;;;13.50;99.90;;;;;;5073849;28;20185;-70
2023/07/07 01:30:51;;;;;;;5.73;5.23;;;13.40;99.90;;;;;;5015499;28;20186;-70
2023/07/07 01:33:20;;;;;;;5.83;5.33;;;13.40;99.90;;;;;;5072015;28;20205;-69
2023/07/07 01:35:46;;;;;;;5.90;5.40;;;13.40;99.90;;;;;;5074268;28;20742;-70
2023/07/07 01:38:37;;;;;;;5.80;5.30;;;13.40;99.90;;;;;;5073783;28;20186;-70
2023/07/07 01:41:35;;;;;;;6.17;5.53;;;13.40;99.90;;;;;;5074035;28;20190;-70
2023/07/07 01:44:10;;;;;;;6.10;5.50;;;13.30;99.90;;;;;;5073438;28;20205;-70
2023/07/07 01:46:52;;;;;;;8.03;7.33;;;13.20;99.90;;;;;;5073625;28;20594;-70
2023/07/07 01:49:25;;;;;;;6.23;5.70;;;13.20;99.90;;;;;;5072813;28;20205;-70
2023/07/07 01:51:54;;;;;;;6.50;5.90;;;13.20;99.90;;;;;;5073824;28;20190;-70
2023/07/07 01:54:21;;;;;;;6.63;6.20;;;13.10;99.90;;;;;;5073325;28;20671;-70
2023/07/07 01:56:49;;;;;;;8.53;6.13;;;13.10;99.90;;;;;;5073631;28;20546;-71
2023/07/07 01:59:16;;;;;;;6.57;5.97;;;13.10;99.90;;;;;;5073669;28;20202;-71
2023/07/07 02:01:42;;;;;;;6.83;6.27;;;13.10;99.90;;;;;;5055374;28;20220;-70
2023/07/07 02:04:08;;;;;;;7.53;6.83;;;13.10;99.90;;;;;;5073004;28;20544;-71
2023/07/07 02:06:34;;;;;;;7.37;6.70;;;13.10;99.90;;;;;;5073398;28;20174;-71
2023/07/07 02:08:59;;;;;;;7.03;6.43;;;13.10;99.90;;;;;;5072983;28;20197;-70
2023/07/07 02:11:25;;;;;;;7.13;6.43;;;13.00;99.90;;;;;;5073383;28;20257;-70
2023/07/07 02:13:50;;;;;;;6.97;6.37;;;13.00;99.90;;;;;;5072885;28;20174;-70
2023/07/07 02:16:16;;;;;;;7.03;6.43;;;13.00;99.90;;;;;;5073218;28;20516;-71
2023/07/07 02:18:48;;;;;;;6.67;6.10;;;13.00;99.90;;;;;;5055077;28;20237;-71
2023/07/07 02:21:15;;;;;;;6.67;6.07;;;13.00;99.90;;;;;;5072980;28;20665;-70
2023/07/07 02:23:41;;;;;;;7.23;6.63;;;13.00;99.90;;;;;;5072896;28;20179;-71
2023/07/07 02:26:07;;;;;;;7.53;6.57;;;13.00;99.90;;;;;;5054937;28;20185;-71
2023/07/07 02:28:32;;;;;;;8.57;6.57;;;13.10;99.90;;;;;;5072840;28;20315;-71
2023/07/07 02:30:58;;;;;;;9.60;6.77;;;13.00;99.90;;;;;;5072752;28;20174;-71
2023/07/07 02:33:30;;;;;;;7.03;6.33;;;13.00;99.90;;;;;;5072557;28;20182;-71
2023/07/07 02:36:01;;;;;;;7.93;7.10;;;13.00;99.90;;;;;;5072504;28;20641;-71
2023/07/07 02:38:27;;;;;;;7.63;6.87;;;13.00;99.90;;;;;;5071449;28;20209;-70
2023/07/07 02:40:53;;;;;;;7.60;6.87;;;13.00;99.90;;;;;;5072548;28;20256;-71
2023/07/07 02:43:18;;;;;;;7.43;6.73;;;12.90;99.90;;;;;;5053900;28;20178;-71
2023/07/07 02:45:44;;;;;;;6.97;6.43;;;12.90;99.90;;;;;;5054850;28;20174;-70
2023/07/07 02:48:10;;;;;;;8.33;6.53;;;12.90;99.90;;;;;;5072398;28;20661;-70
2023/07/07 02:50:35;;;;;;;8.60;7.03;;;12.90;99.90;;;;;;5072254;28;20173;-70
2023/07/07 02:53:03;;;;;;;6.60;6.00;;;12.90;99.90;;;;;;5072019;28;20197;-70
2023/07/07 02:55:28;;;;;;;8.90;6.77;;;12.90;99.90;;;;;;5054501;28;20210;-71
2023/07/07 02:57:54;;;;;;;7.03;6.33;;;12.90;99.90;;;;;;5072345;28;20228;-71
2023/07/07 03:00:19;;;;;;;6.77;6.17;;;12.80;99.90;;;;;;5071907;28;20236;-71
2023/07/07 03:02:46;;;;;;;6.67;6.07;;;12.80;99.90;;;;;;5070922;28;20218;-70
2023/07/07 03:05:12;;;;;;;6.63;6.03;;;12.80;99.90;;;;;;5072164;28;20197;-71
2023/07/07 03:07:38;;;;;;;7.97;7.10;;;12.80;99.90;;;;;;5071977;28;20556;-71
2023/07/07 03:10:06;;;;;;;6.30;5.80;;;12.70;99.90;;;;;;5071989;28;20190;-71
2023/07/07 03:12:32;;;;;;;12.67;6.40;;;12.70;99.90;;;;;;5071655;28;20184;-71
2023/07/07 03:14:58;;;;;;;7.27;6.57;;;12.70;99.90;;;;;;5054007;28;20189;-71
2023/07/07 03:17:23;;;;;;;6.87;6.30;;;12.70;99.90;;;;;;5072063;28;20178;-70
2023/07/07 03:19:49;;;;;;;7.30;6.60;;;12.70;99.90;;;;;;5071960;28;20738;-70
2023/07/07 03:22:15;;;;;;;8.10;6.67;;;12.70;99.90;;;;;;5071737;28;20228;-70
2023/07/07 03:24:40;;;;;;;6.63;6.13;;;12.70;99.90;;;;;;5071271;28;20167;-71
2023/07/07 03:27:06;;;;;;;6.73;6.03;;;12.70;99.90;;;;;;5053484;28;20241;-71
2023/07/07 03:29:31;;;;;;;7.07;6.47;;;12.70;99.90;;;;;;5071757;28;20213;-70
2023/07/07 03:31:57;;;;;;;7.20;6.50;;;12.60;99.90;;;;;;5071715;28;20199;-71
2023/07/07 03:34:25;;;;;;;7.33;6.63;;;12.60;99.90;;;;;;5071412;28;20268;-71
2023/07/07 03:36:51;;;;;;;7.50;6.80;;;12.60;99.90;;;;;;5071416;28;20178;-70
2023/07/07 03:39:17;;;;;;;7.47;6.90;;;12.60;99.90;;;;;;5054100;28;20205;-77
2023/07/07 03:41:43;;;;;;;6.83;6.23;;;12.60;99.90;;;;;;5065069;28;20209;-76
2023/07/07 03:44:08;;;;;;;8.03;7.23;;;12.60;99.90;;;;;;5072762;28;20174;-71
2023/07/07 03:46:34;;;;;;;8.80;6.87;;;12.60;99.90;;;;;;5071462;28;20686;-71
2023/07/07 03:49:00;;;;;;;7.17;6.57;;;12.60;99.90;;;;;;5070936;28;20206;-71
2023/07/07 03:51:28;;;;;;;8.00;7.20;;;12.60;99.90;;;;;;5071558;28;20208;-71
2023/07/07 03:53:54;;;;;;;7.97;6.53;;;12.60;99.90;;;;;;5053139;28;20261;-71
2023/07/07 03:56:20;;;;;;;7.83;7.13;;;12.70;99.90;;;;;;5053288;28;20319;-72
2023/07/07 03:58:47;;;;;;;7.93;6.70;;;12.70;99.90;;;;;;5070865;28;20610;-72
2023/07/07 04:01:14;;;;;;;7.93;7.23;;;12.70;99.90;;;;;;5071072;28;20680;-72
2023/07/07 04:03:40;;;;;;;7.40;6.70;;;12.70;99.90;;;;;;5070948;28;20170;-71
2023/07/07 04:06:06;;;;;;;9.73;7.23;;;12.70;99.90;;;;;;5071198;28;20518;-72
2023/07/07 04:08:33;;;;;;;15.37;7.03;;;12.70;99.90;;;;;;5053446;28;20198;-72
2023/07/07 04:11:00;;;;;;;8.20;7.37;;;12.70;99.90;;;;;;5053060;28;20178;-72
2023/07/07 04:13:30;;;;;;;13.93;6.87;;;12.80;99.90;;;;;;5070699;28;20167;-71
2023/07/07 04:16:15;;;;;;;7.13;6.53;;;12.80;99.90;;;;;;5070904;28;20202;-72
2023/07/07 04:18:42;;;;;;;8.43;7.03;;;12.90;99.90;;;;;;5050931;28;20210;-71
2023/07/07 04:21:10;;;;;;;7.13;6.40;;;13.00;99.90;;;;;;5033022;28;20194;-71
2023/07/07 04:23:37;;;;;;;8.37;6.67;;;13.00;99.90;;;;;;5050893;28;20549;-72
2023/07/07 04:26:05;;;;;;;8.13;7.33;;;13.10;99.90;;;;;;5050945;28;20182;-71
2023/07/07 04:28:31;;;;;;;7.80;7.00;;;13.10;99.90;;;;;;5050831;28;20237;-71
2023/07/07 04:30:58;;;;;;;7.93;6.90;;;13.20;99.90;;;;;;5051108;28;20210;-71
2023/07/07 04:33:27;;;;;;;7.60;6.80;;;13.30;99.90;;;;;;5070391;28;20177;-72
2023/07/07 04:35:57;;;;;;;8.53;6.87;;;13.40;99.90;;;;;;5071013;28;20170;-71
2023/07/07 04:38:30;;;;;;;7.87;6.60;;;13.50;99.90;;;;;;5070868;28;20331;-72
2023/07/07 04:41:06;;;;;;;8.97;6.60;;;13.60;99.90;;;;;;5070822;28;20252;-72
2023/07/07 04:43:33;;;;;;;7.33;6.27;;;13.70;99.90;;;;;;5070713;28;20192;-71
2023/07/07 04:45:59;;;;;;;6.63;6.00;;;14.10;99.90;;;;;;5069465;28;20185;-72
2023/07/07 04:48:24;;;;;;;8.90;6.40;;;14.30;99.90;;;;;;5070751;28;20197;-72
2023/07/07 04:50:51;;;;;;;7.90;5.70;;;14.60;99.90;;;;;;5052525;28;20243;-71
2023/07/07 04:53:16;;;;;;;6.43;5.70;;;14.70;99.90;;;;;;5070276;28;20186;-72
2023/07/07 04:55:43;;;;;;;6.80;6.20;;;15.00;99.90;;;;;;5070720;28;20196;-72
2023/07/07 04:58:09;;;;;;;5.93;5.43;;;15.10;99.90;;;;;;5070599;28;20190;-72
2023/07/07 05:00:35;;;;;;;5.40;5.00;;;15.40;99.90;;;;;;5070563;28;20178;-72
2023/07/07 05:03:01;;;;;;;7.00;5.10;;;15.60;99.90;;;;;;5070276;28;20170;-73
2023/07/07 05:05:26;;;;;;;5.87;5.40;;;15.90;99.90;;;;;;5052835;28;20228;-72
2023/07/07 05:07:52;;;;;;;8.10;5.30;;;16.30;99.90;;;;;;5052445;28;20479;-72
2023/07/07 05:10:17;;;;;;;5.57;5.10;;;16.60;99.90;;;;;;5070433;28;20186;-72
2023/07/07 05:12:43;;;;;;;7.33;5.83;;;16.90;99.90;;;;;;5052128;28;20280;-72
2023/07/07 05:15:09;;;;;;;7.20;6.53;;;17.30;99.90;;;;;;5070379;28;20663;-72
2023/07/07 05:17:34;;;;;;;6.80;5.50;;;17.60;99.90;;;;;;5070582;28;20202;-72
2023/07/07 05:20:00;;;;;;;6.20;5.70;;;17.90;99.90;;;;;;5070386;28;20214;-73
2023/07/07 05:22:25;;;;;;;8.10;5.43;;;18.20;99.90;;;;;;5070085;28;20206;-72
2023/07/07 05:24:51;;;;;;;7.83;4.70;;;18.40;99.90;;;;;;5070879;28;20626;-71
2023/07/07 05:27:17;;;;;;;6.13;5.53;;;18.60;99.90;;;;;;5074077;28;20178;-72
2023/07/07 05:29:42;;;;;;;6.33;5.73;;;18.70;99.90;;;;;;5056296;28;20194;-72
2023/07/07 05:32:08;;;;;;;7.17;6.47;;;18.60;99.90;;;;;;5073995;28;20549;-72
2023/07/07 05:34:33;;;;;;;6.57;6.00;;;18.60;99.90;;;;;;5073830;28;20187;-72
2023/07/07 05:36:59;;;;;;;6.33;5.73;;;18.60;99.90;;;;;;5074030;28;20189;-72
2023/07/07 05:39:25;;;;;;;5.70;5.30;;;18.50;99.90;;;;;;5073851;28;20552;-72
2023/07/07 05:41:50;;;;;;;6.30;4.90;;;18.40;99.90;;;;;;5053936;28;20210;-71
2023/07/07 05:44:16;;;;;;;5.87;5.27;;;18.20;99.90;;;;;;5073059;28;20265;-72
2023/07/07 05:46:41;;;;;;;6.23;4.53;;;18.20;99.90;;;;;;5073686;28;20177;-71
2023/07/07 05:49:07;;;;;;;5.73;5.17;;;18.30;99.90;;;;;;5073465;28;20214;-72
2023/07/07 05:51:32;;;;;;;8.07;4.70;;;18.50;99.90;;;;;;5055567;28;20224;-72
2023/07/07 05:53:58;;;;;;;4.50;4.10;;;18.80;99.90;;;;;;5072545;28;20665;-72
2023/07/07 05:56:25;;;;;;;5.20;4.70;;;19.20;99.90;;;;;;5073624;28;20206;-71
2023/07/07 05:58:51;;;;;;;5.38;4.35;;;19.50;99.90;;;;;;5073364;28;20198;-72
2023/07/07 06:01:17;;;;;;;4.70;4.30;;;19.90;99.90;;;;;;5073364;28;20709;-72
2023/07/07 06:03:45;;;;;;;7.28;4.15;;;20.30;99.90;;;;;;5073295;28;20181;-70
2023/07/07 06:06:11;;;;;;;13.55;4.50;;;20.60;99.90;;;;;;5073345;28;20170;-70
2023/07/07 06:08:38;;;;;;;4.97;4.63;;;20.90;99.90;;;;;;5073433;28;20198;-70
2023/07/07 06:11:03;;;;;;;5.10;4.05;;;21.20;99.90;;;;;;5073219;28;20174;-70
2023/07/07 06:13:29;;;;;;;4.55;4.15;;;21.50;99.90;;;;;;5073158;28;20261;-70
2023/07/07 06:15:55;;;;;;;4.28;3.97;;;21.70;99.90;;;;;;5073209;28;20219;-70
2023/07/07 06:18:21;;;;;;;3.58;3.38;;;21.90;99.90;;;;;;5073242;28;20589;-70
2023/07/07 06:20:53;;;;;;;5.50;4.18;;;22.10;99.90;;;;;;5072790;28;20178;-69
2023/07/07 06:23:19;;;;;;;4.30;3.90;;;22.30;99.90;;;;;;5072627;28;20637;-70
2023/07/07 06:25:47;;;;;;;6.22;4.40;;;22.60;99.90;;;;;;5073136;28;20303;-70
2023/07/07 06:28:12;;;;;;;4.63;3.60;;;22.80;99.90;;;;;;5072860;28;20207;-70
2023/07/07 06:30:38;;;;;;;3.60;3.30;;;23.10;99.90;;;;;;5055122;28;20174;-70
2023/07/07 06:33:04;;;;;;;5.60;4.03;;;23.40;99.90;;;;;;5053966;28;20531;-70
2023/07/07 06:35:30;;;;;;;3.90;3.38;;;23.70;99.90;;;;;;5054779;28;20224;-70
2023/07/07 06:37:55;;;;;;;5.90;3.38;;;23.90;99.90;;;;;;5071663;28;20174;-70
2023/07/07 06:40:21;;;;;;;3.70;3.30;;;24.00;99.90;;;;;;5072723;28;20170;-70
2023/07/07 06:42:48;;;;;;;3.55;3.25;;;24.30;99.90;;;;;;5054426;28;20741;-70
2023/07/07 06:45:14;;;;;;;3.42;3.13;;;24.50;99.90;;;;;;5072449;28;20284;-70
2023/07/07 06:47:39;;;;;;;4.53;3.00;;;24.90;99.90;;;;;;5072688;28;20239;-70
2023/07/07 06:50:06;;;;;;;7.57;3.30;;;25.10;99.90;;;;;;5054207;28;20233;-70
2023/07/07 06:52:32;;;;;;;6.15;3.45;;;25.30;99.90;;;;;;5072015;28;20204;-71
2023/07/07 06:54:57;;;;;;;3.65;3.35;;;25.50;99.90;;;;;;5072254;28;20178;-71
2023/07/07 06:57:23;;;;;;;4.32;3.30;;;25.80;99.90;;;;;;5072397;28;20209;-70
2023/07/07 06:59:48;;;;;;;3.33;3.03;;;26.00;99.90;;;;;;5072573;28;20228;-70
2023/07/07 07:02:14;;;;;;;4.65;3.20;;;26.30;99.90;;;;;;5072137;28;20202;-70
2023/07/07 07:04:40;;;;;;;3.53;3.22;;;26.50;99.90;;;;;;5054104;28;20174;-70
2023/07/07 07:07:10;;;;;;;3.40;3.10;;;26.80;99.90;;;;;;5072014;28;20271;-71
2023/07/07 07:09:36;;;;;;;3.95;2.97;;;26.90;99.90;;;;;;5072134;28;20557;-70
2023/07/07 07:12:01;;;;;;;4.28;3.08;;;27.20;99.90;;;;;;5070470;28;20262;-71
2023/07/07 07:14:27;;;;;;;4.10;3.30;;;27.30;99.90;;;;;;5070215;28;20178;-70
2023/07/07 07:16:52;;;;;;;3.30;2.97;;;27.30;99.90;;;;;;5054011;28;20174;-71
2023/07/07 07:19:18;;;;;;;5.30;2.90;;;27.40;99.90;;;;;;5053565;28;20542;-70
2023/07/07 07:21:44;;;;;;;3.40;3.10;;;27.40;99.90;;;;;;5071909;28;20202;-71
2023/07/07 07:24:09;;;;;;;4.43;3.13;;;27.50;99.90;;;;;;5070651;28;20265;-70
2023/07/07 07:26:35;;;;;;;4.45;3.15;;;27.70;99.90;;;;;;5071868;28;20163;-70
2023/07/07 07:29:01;;;;;;;3.33;3.03;;;28.20;99.90;;;;;;5073034;28;20205;-71
2023/07/07 07:31:26;;;;;;;5.55;3.17;;;28.60;99.90;;;;;;5071717;28;20170;-70
2023/07/07 07:33:53;;;;;;;3.20;2.95;;;29.00;99.90;;;;;;5070912;28;20537;-71
2023/07/07 07:36:20;;;;;;;3.03;2.83;;;29.00;99.90;;;;;;5071544;28;20182;-70
2023/07/07 07:38:46;;;;;;;3.88;3.22;;;29.10;99.90;;;;;;5071686;28;20182;-71
2023/07/07 07:41:11;;;;;;;2.95;2.75;;;29.20;99.90;;;;;;5071592;28;20491;-71
2023/07/07 07:43:37;;;;;;;3.42;2.65;;;29.50;99.90;;;;;;5071277;28;20175;-70
2023/07/07 07:46:03;;;;;;;3.03;2.83;;;29.70;99.90;;;;;;5071211;28;20174;-71
2023/07/07 07:48:28;;;;;;;4.82;2.97;;;30.00;99.90;;;;;;5071200;28;20182;-70
2023/07/07 07:50:54;;;;;;;4.35;3.95;;;30.20;99.90;;;;;;5052068;28;20200;-70
2023/07/07 07:53:19;;;;;;;3.25;3.05;;;30.10;99.90;;;;;;5070122;28;20174;-70
2023/07/07 07:55:45;;;;;;;4.18;2.85;;;30.10;99.90;;;;;;5071171;28;20182;-70
2023/07/07 07:58:11;;;;;;;4.50;3.10;;;30.10;99.90;;;;;;5070654;28;20209;-71
2023/07/07 08:00:37;;;;;;;3.75;3.15;;;30.10;99.90;;;;;;5053372;28;20186;-71
2023/07/07 08:03:03;;;;;;;4.10;3.10;;;30.40;99.90;;;;;;5066717;28;20537;-71
2023/07/07 08:05:28;;;;;;;2.95;2.75;;;30.80;99.90;;;;;;5071356;28;20633;-70
2023/07/07 08:07:54;;;;;;;3.25;2.95;;;31.10;99.90;;;;;;5070271;28;20622;-71
2023/07/07 08:10:19;;;;;;;3.65;2.60;;;31.30;98.80;;;;;;5070819;28;20170;-71
2023/07/07 08:12:45;;;;;;;3.78;2.60;;;31.20;98.30;;;;;;5071088;28;20178;-71
2023/07/07 08:15:12;;;;;;;3.15;2.78;;;31.20;97.80;;;;;;5070907;28;20202;-71
2023/07/07 08:17:38;;;;;;;3.45;3.15;;;31.30;97.90;;;;;;5070887;28;20182;-71
2023/07/07 08:20:05;;;;;;;5.18;2.90;;;31.50;98.30;;;;;;5071323;28;20213;-70
2023/07/07 08:22:31;;;;;;;3.50;2.78;;;31.70;97.20;;;;;;5069300;28;20202;-71
2023/07/07 08:24:58;;;;;;;3.15;2.50;;;31.70;97.60;;;;;;5070949;28;20704;-70
2023/07/07 08:27:26;;;;;;;3.40;2.70;;;31.50;95.30;;;;;;5070978;28;20173;-71
2023/07/07 08:29:52;;;;;;;3.08;2.88;;;31.60;95.80;;;;;;5070938;28;20206;-70
2023/07/07 08:32:23;;;;;;;2.90;2.70;;;31.60;95.10;;;;;;5052718;28;20181;-70
2023/07/07 08:34:50;;;;;;;3.80;2.85;;;31.50;96.30;;;;;;5070800;28;20186;-71
2023/07/07 08:37:17;;;;;;;3.03;2.63;;;31.90;96.80;;;;;;5070714;28;20275;-71
2023/07/07 08:39:43;;;;;;;3.92;2.40;;;31.70;93.10;;;;;;5053064;28;20680;-71
2023/07/07 08:42:24;;;;;;;3.50;3.20;;;31.80;96.90;;;;;;5070715;28;20279;-70
2023/07/07 08:44:50;;;;;;;3.88;2.70;;;31.80;91.80;;;;;;5070819;28;20170;-70
2023/07/07 08:47:50;;;;;;;2.80;2.60;;;32.10;96.00;;;;;;5070013;28;20178;-70
2023/07/07 08:50:38;;;;;;;3.05;2.75;;;32.10;92.00;;;;;;5069716;28;20182;-71
2023/07/07 08:53:31;;;;;;;5.13;2.60;;;32.40;93.80;;;;;;5070083;28;20220;-70
2023/07/07 08:56:25;;;;;;;3.83;2.85;;;32.70;90.70;;;;;;5068278;28;20278;-70
2023/07/07 08:59:12;;;;;;;7.78;2.72;;;33.00;91.90;;;;;;5060685;28;20230;-70
2023/07/07 09:02:02;;;;;;;5.15;2.53;;;33.40;89.30;;;;;;5074506;28;20236;-71
2023/07/07 09:04:38;;;;;;;2.80;2.60;;;33.50;90.50;;;;;;5074565;28;20178;-69
2023/07/07 09:07:25;;;;;;;4.30;2.75;;;33.90;86.90;;;;;;5074160;28;20166;-70
2023/07/07 09:10:07;;;;;;;3.15;2.85;;;33.90;90.40;;;;;;5075567;28;20196;-70
2023/07/07 09:12:50;;;;;;;3.20;2.90;;;34.00;84.80;;;;;;5074286;28;20174;-71
2023/07/07 09:15:31;;;;;;;3.22;2.95;;;34.00;87.00;;;;;;5074219;28;20520;-70
2023/07/07 09:18:14;;;;;;;4.88;3.17;;;34.00;85.20;;;;;;5074090;28;20185;-70
2023/07/07 09:20:41;;;;;;;3.50;3.20;;;34.40;80.50;;;;;;5056239;28;20185;-70
2023/07/07 09:23:17;;;;;;;2.92;2.65;;;34.40;83.10;;;;;;5073705;28;20671;-70
2023/07/07 09:25:54;;;;;;;4.15;2.50;;;34.70;88.40;;;;;;5073933;28;20256;-70
2023/07/07 09:28:20;;;;;;;3.17;2.78;;;34.80;78.60;;;;;;5072433;28;20535;-71
2023/07/07 09:30:55;;;;;;;3.15;2.85;;;34.80;83.20;;;;;;5073853;28;20185;-71
2023/07/07 09:33:23;;;;;;;3.08;2.72;;;34.70;78.90;;;;;;5073532;28;20161;-70
2023/07/07 09:35:54;;;;;;;3.83;2.78;;;35.10;85.50;;;;;;5073805;28;20208;-70
2023/07/07 09:38:26;;;;;;;2.63;2.42;;;35.20;74.00;;;;;;5073734;28;20560;-70
2023/07/07 09:41:17;;;;;;;2.72;2.45;;;35.10;77.70;;;;;;5074158;28;20166;-71
2023/07/07 09:44:13;;;;;;;4.00;2.72;;;35.10;74.90;;;;;;5073504;28;20170;-70
2023/07/07 09:46:43;;;;;;;3.35;2.95;;;35.10;71.70;;;;;;5055855;28;20590;-71
2023/07/07 09:49:49;;;;;;;4.22;3.10;;;34.70;68.30;;;;;;5073254;28;20268;-70
2023/07/07 09:52:43;;;;;;;7.03;3.28;;;34.50;65.80;;;;;;5073332;28;20585;-71
2023/07/07 09:55:19;;;;;;;3.10;2.78;;;34.00;67.70;;;;;;5055444;28;20170;-71
2023/07/07 09:57:58;;;;;;;3.05;2.85;;;33.50;72.10;;;;;;5073634;28;20173;-70
2023/07/07 10:00:26;;;;;;;4.05;3.10;;;33.60;70.40;;;;;;5073283;28;20178;-70
2023/07/07 10:02:53;;;;;;;3.22;2.92;;;33.50;66.10;;;;;;5071758;28;20208;-71
2023/07/07 10:05:25;;;;;;;2.97;2.67;;;33.50;68.70;;;;;;5073241;28;20649;-71
2023/07/07 10:07:52;;;;;;;3.97;3.55;;;33.40;72.00;;;;;;5072838;28;20189;-70
2023/07/07 10:10:18;;;;;;;5.25;3.08;;;33.40;71.70;;;;;;5072171;28;20524;-70
2023/07/07 10:12:45;;;;;;;3.42;3.13;;;33.80;72.40;;;;;;5073361;28;20181;-72
2023/07/07 10:15:40;;;;;;;3.03;2.70;;;34.00;60.80;;;;;;5054989;28;20637;-70
2023/07/07 10:18:28;;;;;;;5.18;3.10;;;34.10;65.10;;;;;;5038194;28;20193;-71
2023/07/07 10:20:57;;;;;;;3.72;2.78;;;34.20;64.90;;;;;;5072741;28;20534;-70
2023/07/07 10:23:26;;;;;;;4.25;3.15;;;34.40;63.40;;;;;;5072798;28;20174;-71
2023/07/07 10:25:52;;;;;;;2.75;2.45;;;34.50;60.30;;;;;;5073140;28;20162;-70
2023/07/07 10:28:20;;;;;;;3.58;3.00;;;34.40;59.10;;;;;;5073090;28;20186;-71
2023/07/07 10:30:47;;;;;;;2.70;2.50;;;34.60;63.00;;;;;;5072940;28;20175;-71
2023/07/07 10:33:15;;;;;;;2.85;2.50;;;34.80;58.70;;;;;;5072376;28;20170;-71
2023/07/07 10:35:41;;;;;;;2.75;2.55;;;34.80;60.20;;;;;;5073324;28;20166;-70
2023/07/07 10:38:10;;;;;;;4.05;2.92;;;35.00;62.40;;;;;;5072759;28;20754;-70
2023/07/07 10:40:36;;;;;;;3.38;3.08;;;34.90;55.60;;;;;;5055132;28;20545;-71
2023/07/07 10:43:04;;;;;;;4.65;2.80;;;35.10;61.10;;;;;;5071031;28;20292;-70
2023/07/07 10:45:29;;;;;;;2.63;2.42;;;35.50;56.60;;;;;;5072734;28;20162;-71
2023/07/07 10:47:56;;;;;;;4.00;3.13;;;35.40;58.80;;;;;;5072664;28;20181;-70
2023/07/07 10:50:25;;;;;;;3.05;2.67;;;35.50;55.70;;;;;;5072416;28;20190;-70
2023/07/07 10:53:12;;;;;;;3.95;3.28;;;35.20;59.10;;;;;;5072493;28;20181;-70
2023/07/07 10:56:03;;;;;;;6.20;3.20;;;34.80;58.40;;;;;;5072686;28;20542;-70
2023/07/07 10:58:31;;;;;;;3.67;3.15;;;34.50;57.90;;;;;;5072537;28;20186;-71
2023/07/07 11:01:28;;;;;;;3.33;3.10;;;34.50;62.60;;;;;;5072286;28;20755;-71
2023/07/07 11:04:23;;;;;;;5.85;2.95;;;34.80;60.10;;;;;;5072252;28;20633;-70
2023/07/07 11:07:00;;;;;;;4.15;3.00;;;35.10;64.30;;;;;;5072370;28;20172;-70
2023/07/07 11:09:51;;;;;;;2.65;2.45;;;35.30;52.70;;;;;;5071691;28;20273;-70
2023/07/07 11:12:27;;;;;;;2.80;2.58;;;34.90;53.00;;;;;;5071936;28;20174;-70
2023/07/07 11:15:28;;;;;;;3.25;2.92;;;34.50;51.50;;;;;;5072131;28;20170;-71
2023/07/07 11:18:00;;;;;;;3.80;3.50;;;34.30;52.60;;;;;;5071848;28;20181;-71
2023/07/07 11:20:58;;;;;;;3.65;3.35;;;34.30;49.70;;;;;;5072410;28;20170;-71
2023/07/07 11:23:53;;;;;;;3.50;3.20;;;34.30;48.60;;;;;;5060086;28;20687;-70
2023/07/07 11:26:46;;;;;;;3.78;2.80;;;34.00;49.60;;;;;;5030518;28;20200;-70
2023/07/07 11:29:26;;;;;;;3.17;2.88;;;33.90;50.60;;;;;;5053454;28;20205;-70
2023/07/07 11:31:58;;;;;;;3.90;3.00;;;33.80;51.50;;;;;;5071238;28;20645;-70
2023/07/07 11:35:01;;;;;;;4.10;3.53;;;33.60;48.50;;;;;;5071383;28;20253;-70
2023/07/07 11:37:51;;;;;;;3.20;2.92;;;33.30;49.70;;;;;;5071677;28;20173;-71
2023/07/07 11:40:50;;;;;;;3.20;3.00;;;33.00;50.00;;;;;;5071693;28;20215;-71
2023/07/07 11:43:43;;;;;;;4.50;2.70;;;33.10;50.90;;;;;;5071205;28;20178;-70
2023/07/07 11:46:35;;;;;;;3.45;3.10;;;33.30;50.70;;;;;;5071117;28;20265;-71
2023/07/07 11:49:20;;;;;;;5.90;3.47;;;33.70;50.30;;;;;;5040423;28;20231;-71
2023/07/07 11:52:08;;;;;;;8.05;2.85;;;33.90;52.70;;;;;;5071742;28;20177;-71
2023/07/07 11:54:52;;;;;;;3.00;2.80;;;34.00;54.00;;;;;;5071243;28;20245;-69
2023/07/07 11:57:38;;;;;;;3.30;3.00;;;33.90;52.10;;;;;;5071456;28;20374;-71
2023/07/07 12:00:15;;;;;;;3.58;3.30;;;33.90;49.20;;;;;;5053071;28;20193;-71
2023/07/07 12:02:45;;;;;;;5.63;3.30;;;34.00;54.30;;;;;;5071020;28;20202;-71
2023/07/07 12:05:19;;;;;;;3.10;2.90;;;34.10;53.20;;;;;;5071001;28;20683;-70
2023/07/07 12:07:54;;;;;;;2.75;2.55;;;34.10;50.60;;;;;;5071215;28;20224;-70
2023/07/07 12:10:22;;;;;;;2.95;2.75;;;34.10;53.30;;;;;;5071068;28;20162;-71
2023/07/07 12:13:05;;;;;;;3.53;3.22;;;34.20;54.20;;;;;;5070925;28;20178;-70
2023/07/07 12:15:43;;;;;;;3.45;3.10;;;34.20;54.80;;;;;;5070997;28;20236;-70
2023/07/07 12:18:14;;;;;;;3.58;3.17;;;34.20;50.50;;;;;;5070999;28;20284;-71
2023/07/07 12:20:47;;;;;;;3.92;3.28;;;34.40;52.00;;;;;;5070783;28;20170;-72
2023/07/07 12:23:20;;;;;;;4.20;3.80;;;34.70;54.40;;;;;;5070606;28;20232;-70
2023/07/07 12:25:46;;;;;;;3.30;3.00;;;34.60;50.40;;;;;;5071263;28;20174;-71
2023/07/07 12:28:13;;;;;;;3.80;3.38;;;34.40;51.40;;;;;;5070965;28;20589;-71
2023/07/07 12:30:47;;;;;;;4.53;3.30;;;34.40;51.60;;;;;;5071045;28;20633;-70
2023/07/07 12:33:17;;;;;;;3.20;2.92;;;34.10;53.40;;;;;;5070406;28;20169;-70
2023/07/07 12:35:52;;;;;;;3.22;2.97;;;34.10;56.20;;;;;;5075508;28;20193;-71
2023/07/07 12:38:27;;;;;;;5.05;3.30;;;34.20;50.70;;;;;;5074658;28;20617;-71
2023/07/07 12:41:15;;;;;;;3.65;3.35;;;34.30;51.00;;;;;;5075017;28;20169;-71
2023/07/07 12:43:50;;;;;;;3.50;2.80;;;34.40;53.70;;;;;;5075071;28;20241;-71
2023/07/07 12:46:24;;;;;;;3.10;2.90;;;34.30;48.10;;;;;;5074833;28;20173;-71
2023/07/07 12:48:52;;;;;;;2.90;2.70;;;34.30;48.90;;;;;;5056844;28;20302;-71
2023/07/07 12:51:18;;;;;;;2.95;2.67;;;34.60;50.10;;;;;;5073383;28;20181;-71
2023/07/07 12:53:51;;;;;;;3.13;2.90;;;34.70;49.30;;;;;;5074585;28;20586;-71
2023/07/07 12:56:20;;;;;;;2.88;2.60;;;35.00;46.90;;;;;;5074845;28;20182;-71
2023/07/07 12:58:55;;;;;;;4.85;3.13;;;34.80;49.40;;;;;;5074765;28;20711;-71
2023/07/07 13:01:38;;;;;;;3.92;2.80;;;34.70;51.20;;;;;;5074524;28;20205;-70
2023/07/07 13:04:07;;;;;;;3.85;2.95;;;34.70;49.70;;;;;;5074500;28;20181;-70
2023/07/07 13:06:36;;;;;;;3.10;2.90;;;34.80;48.20;;;;;;5074236;28;20257;-70